createdAt,value
2023-10-03T00:00:16.882Z,1003.47
2023-10-03T00:01:17.766Z,1003.45
2023-10-03T00:02:18.644Z,1003.42
2023-10-03T00:03:19.565Z,1003.41
2023-10-03T00:04:20.592Z,1003.38
2023-10-03T00:05:21.504Z,1003.35
2023-10-03T00:06:22.364Z,1003.32
2023-10-03T00:07:23.240Z,1003.29
2023-10-03T00:08:24.279Z,1003.27
2023-10-03T00:09:24.666Z,1003.25
2023-10-03T00:10:25.576Z,1003.24
2023-10-03T00:11:26.490Z,1003.21
2023-10-03T00:12:27.325Z,1003.18
2023-10-03T00:13:28.249Z,1003.15
2023-10-03T00:14:29.156Z,1003.13
2023-10-03T00:15:30.012Z,1003.10
2023-10-03T00:16:30.875Z,1003.08
2023-10-03T00:17:31.837Z,1003.09
2023-10-03T00:18:32.780Z,1003.07
2023-10-03T00:19:33.722Z,1003.06
2023-10-03T00:20:34.643Z,1003.03
2023-10-03T00:21:35.529Z,1003.01
2023-10-03T00:22:36.388Z,1003.00
2023-10-03T00:23:37.312Z,1002.98
2023-10-03T00:24:38.206Z,1002.98
2023-10-03T00:25:39.116Z,1002.99
2023-10-03T00:26:40.094Z,1003.00
2023-10-03T00:27:40.918Z,1002.99
2023-10-03T00:28:41.839Z,1002.99
2023-10-03T00:29:42.793Z,1002.98
2023-10-03T00:30:43.212Z,1002.99
2023-10-03T00:31:44.097Z,1002.99
2023-10-03T00:32:45.121Z,1002.99
2023-10-03T00:33:45.586Z,1002.98
2023-10-03T00:34:46.471Z,1002.97
2023-10-03T00:35:47.419Z,1002.96
2023-10-03T00:36:48.301Z,1002.96
2023-10-03T00:37:49.174Z,1002.95
2023-10-03T00:38:50.124Z,1002.92
2023-10-03T00:39:50.985Z,1002.90
2023-10-03T00:40:51.843Z,1002.88
2023-10-03T00:41:52.747Z,1002.85
2023-10-03T00:42:53.615Z,1002.82
2023-10-03T00:43:54.501Z,1002.80
2023-10-03T00:44:55.441Z,1002.77
2023-10-03T00:45:56.315Z,1002.76
2023-10-03T00:46:57.179Z,1002.74
2023-10-03T00:47:58.166Z,1002.74
2023-10-03T00:48:58.598Z,1002.74
2023-10-03T00:49:59.496Z,1002.72
2023-10-03T00:51:00.512Z,1002.69
2023-10-03T00:52:00.909Z,1002.68
2023-10-03T00:53:01.786Z,1002.66
2023-10-03T00:54:02.695Z,1002.65
2023-10-03T00:55:03.569Z,1002.63
2023-10-03T00:56:04.450Z,1002.62
2023-10-03T00:57:05.333Z,1002.61
2023-10-03T00:58:06.192Z,1002.58
2023-10-03T00:59:07.095Z,1002.56
2023-10-03T01:00:07.979Z,1002.53
2023-10-03T01:01:08.855Z,1002.51
2023-10-03T01:02:09.726Z,1002.49
2023-10-03T01:03:10.667Z,1002.46
2023-10-03T01:04:11.242Z,1002.44
2023-10-03T01:05:11.692Z,1002.43
2023-10-03T01:06:12.616Z,1002.43
2023-10-03T01:07:13.457Z,1002.41
2023-10-03T01:08:14.331Z,1002.38
2023-10-03T01:09:15.231Z,1002.37
2023-10-03T01:10:16.103Z,1002.35
2023-10-03T01:11:17.325Z,1002.32
2023-10-03T01:12:17.513Z,1002.29
2023-10-03T01:13:18.378Z,1002.29
2023-10-03T01:14:19.272Z,1002.30
2023-10-03T01:15:20.984Z,1002.28
2023-10-03T01:16:21.127Z,1002.28
2023-10-03T01:17:21.997Z,1002.28
2023-10-03T01:18:22.942Z,1002.26
2023-10-03T01:19:23.888Z,1002.24
2023-10-03T01:20:24.842Z,1002.23
2023-10-03T01:21:25.227Z,1002.19
2023-10-03T01:22:26.116Z,1002.18
2023-10-03T01:23:27.028Z,1002.18
2023-10-03T01:24:28.024Z,1002.17
2023-10-03T01:25:28.962Z,1002.17
2023-10-03T01:26:29.897Z,1002.17
2023-10-03T01:27:30.751Z,1002.16
2023-10-03T01:28:31.646Z,1002.15
2023-10-03T01:29:32.576Z,1002.15
2023-10-03T01:30:33.453Z,1002.14
2023-10-03T01:31:34.342Z,1002.12
2023-10-03T01:32:35.264Z,1002.10
2023-10-03T01:33:36.171Z,1002.06
2023-10-03T01:34:37.080Z,1002.01
2023-10-03T01:35:38.022Z,1001.98
2023-10-03T01:36:38.904Z,1001.93
2023-10-03T01:37:39.793Z,1001.93
2023-10-03T01:38:40.709Z,1001.89
2023-10-03T01:39:41.567Z,1001.89
2023-10-03T01:40:42.980Z,1001.90
2023-10-03T01:41:43.415Z,1001.92
2023-10-03T01:42:44.268Z,1001.89
2023-10-03T01:43:45.157Z,1001.83
2023-10-03T01:44:46.076Z,1001.81
2023-10-03T01:45:46.956Z,1001.77
2023-10-03T01:46:47.862Z,1001.73
2023-10-03T01:47:48.850Z,1001.69
2023-10-03T01:48:49.260Z,1001.63
2023-10-03T01:49:50.134Z,1001.60
2023-10-03T01:50:51.037Z,1001.60
2023-10-03T01:51:51.940Z,1001.58
2023-10-03T01:52:52.808Z,1001.57
2023-10-03T01:53:53.725Z,1001.52
2023-10-03T01:54:54.577Z,1001.46
2023-10-03T01:55:55.450Z,1001.40
2023-10-03T01:56:56.356Z,1001.35
2023-10-03T01:57:57.246Z,1001.31
2023-10-03T01:58:58.108Z,1001.30
2023-10-03T01:59:58.995Z,1001.30
2023-10-03T02:00:59.889Z,1001.27
2023-10-03T02:02:00.806Z,1001.21
2023-10-03T02:03:01.878Z,1001.20
2023-10-03T02:04:02.331Z,1001.19
2023-10-03T02:05:03.211Z,1001.14
2023-10-03T02:06:04.130Z,1001.12
2023-10-03T02:07:04.972Z,1001.08
2023-10-03T02:08:05.876Z,1001.04
2023-10-03T02:09:06.776Z,1001.02
2023-10-03T02:10:07.637Z,1001.02
2023-10-03T02:11:08.544Z,1001.03
2023-10-03T02:12:09.481Z,1000.99
2023-10-03T02:13:10.314Z,1000.97
2023-10-03T02:14:11.179Z,1000.96
2023-10-03T02:15:12.103Z,1000.95
2023-10-03T02:16:12.978Z,1000.91
2023-10-03T02:17:13.882Z,1000.86
2023-10-03T02:18:14.943Z,1000.84
2023-10-03T02:19:15.401Z,1000.82
2023-10-03T02:20:16.291Z,1000.82
2023-10-03T02:21:17.183Z,1000.84
2023-10-03T02:22:18.066Z,1000.84
2023-10-03T02:23:19.034Z,1000.80
2023-10-03T02:24:19.456Z,1000.73
2023-10-03T02:25:20.358Z,1000.73
2023-10-03T02:26:21.223Z,1000.72
2023-10-03T02:27:22.147Z,1000.72
2023-10-03T02:28:22.992Z,1000.70
2023-10-03T02:29:23.915Z,1000.69
2023-10-03T02:30:24.799Z,1000.71
2023-10-03T02:31:25.829Z,1000.72
2023-10-03T02:32:26.369Z,1000.71
2023-10-03T02:33:26.849Z,1000.71
2023-10-03T02:34:27.225Z,1000.66
2023-10-03T02:35:28.213Z,1000.57
2023-10-03T02:36:29.097Z,1000.44
2023-10-03T02:37:29.978Z,1000.40
2023-10-03T02:38:31.255Z,1000.40
2023-10-03T02:39:31.745Z,1000.39
2023-10-03T02:40:32.618Z,1000.40
2023-10-03T02:41:33.511Z,1000.40
2023-10-03T02:42:34.354Z,1000.40
2023-10-03T02:43:35.257Z,1000.33
2023-10-03T02:44:36.190Z,1000.25
2023-10-03T02:45:37.063Z,1000.18
2023-10-03T02:46:37.920Z,1000.20
2023-10-03T02:47:38.868Z,1000.17
2023-10-03T02:48:39.790Z,1000.12
2023-10-03T02:49:40.669Z,1000.11
2023-10-03T02:50:41.552Z,1000.09
2023-10-03T02:51:42.394Z,1000.05
2023-10-03T02:52:43.312Z,999.98
2023-10-03T02:53:44.286Z,1000.00
2023-10-03T02:54:44.792Z,1000.10
2023-10-03T02:55:45.629Z,1000.06
2023-10-03T02:56:46.530Z,999.95
2023-10-03T02:57:47.427Z,999.94
2023-10-03T02:58:48.298Z,999.95
2023-10-03T02:59:49.246Z,999.88
2023-10-03T03:00:50.111Z,999.90
2023-10-03T03:01:51.006Z,999.88
2023-10-03T03:02:52.068Z,999.86
2023-10-03T03:03:52.594Z,999.84
2023-10-03T03:04:53.102Z,999.82
2023-10-03T03:05:54.028Z,999.83
2023-10-03T03:06:54.893Z,999.80
2023-10-03T03:07:55.397Z,999.73
2023-10-03T03:08:56.363Z,999.69
2023-10-03T03:09:56.774Z,999.79
2023-10-03T03:10:57.695Z,999.74
2023-10-03T03:11:59.878Z,999.68
2023-10-03T03:12:59.274Z,999.63
2023-10-03T03:14:00.151Z,999.61
2023-10-03T03:15:01.107Z,999.60
2023-10-03T03:16:02.239Z,999.58
2023-10-03T03:17:02.946Z,999.55
2023-10-03T03:18:03.865Z,999.55
2023-10-03T03:19:04.755Z,999.52
2023-10-03T03:20:05.637Z,999.47
2023-10-03T03:21:06.503Z,999.47
2023-10-03T03:22:07.402Z,999.47
2023-10-03T03:23:08.291Z,999.43
2023-10-03T03:24:09.159Z,999.38
2023-10-03T03:25:10.029Z,999.34
2023-10-03T03:26:10.910Z,999.28
2023-10-03T03:27:11.804Z,999.28
2023-10-03T03:28:12.734Z,999.27
2023-10-03T03:29:13.606Z,999.18
2023-10-03T03:30:14.458Z,999.16
2023-10-03T03:31:15.384Z,999.12
2023-10-03T03:32:16.254Z,999.11
2023-10-03T03:33:17.192Z,999.13
2023-10-03T03:34:18.114Z,999.13
2023-10-03T03:35:19.316Z,999.14
2023-10-03T03:36:19.690Z,999.17
2023-10-03T03:37:20.552Z,999.19
2023-10-03T03:38:21.498Z,999.17
2023-10-03T03:39:22.361Z,999.11
2023-10-03T03:40:23.284Z,999.05
2023-10-03T03:41:24.187Z,999.01
2023-10-03T03:42:25.035Z,999.00
2023-10-03T03:43:25.907Z,999.02
2023-10-03T03:44:27.365Z,998.98
2023-10-03T03:45:27.793Z,998.98
2023-10-03T03:46:28.653Z,998.93
2023-10-03T03:47:29.658Z,998.92
2023-10-03T03:48:30.161Z,998.95
2023-10-03T03:49:31.056Z,998.97
2023-10-03T03:50:35.071Z,998.95
2023-10-03T03:51:32.501Z,998.96
2023-10-03T03:52:33.354Z,998.96
2023-10-03T03:53:34.270Z,998.96
2023-10-03T03:54:35.149Z,999.00
2023-10-03T03:55:36.002Z,998.97
2023-10-03T03:56:36.974Z,998.92
2023-10-03T03:57:37.789Z,998.89
2023-10-03T03:58:38.734Z,998.85
2023-10-03T03:59:39.635Z,998.79
2023-10-03T04:00:40.510Z,998.78
2023-10-03T04:01:41.375Z,998.82
2023-10-03T04:02:42.368Z,998.82
2023-10-03T04:03:43.461Z,998.83
2023-10-03T04:04:43.993Z,998.83
2023-10-03T04:05:44.895Z,998.83
2023-10-03T04:06:45.790Z,998.85
2023-10-03T04:07:46.682Z,998.87
2023-10-03T04:09:04.167Z,998.90
2023-10-03T04:09:49.316Z,998.93
2023-10-03T04:10:49.181Z,998.87
2023-10-03T04:11:49.742Z,998.80
2023-10-03T04:12:50.633Z,998.82
2023-10-03T04:13:51.557Z,998.88
2023-10-03T04:14:52.446Z,998.86
2023-10-03T04:15:53.357Z,998.91
2023-10-03T04:16:54.257Z,998.92
2023-10-03T04:17:55.228Z,998.86
2023-10-03T04:18:55.640Z,998.85
2023-10-03T04:19:56.496Z,998.84
2023-10-03T04:20:57.426Z,998.80
2023-10-03T04:21:58.299Z,998.76
2023-10-03T04:22:59.199Z,998.81
2023-10-03T04:24:00.065Z,998.84
2023-10-03T04:25:00.912Z,998.79
2023-10-03T04:26:01.792Z,998.77
2023-10-03T04:27:02.740Z,998.79
2023-10-03T04:28:03.668Z,998.82
2023-10-03T04:29:04.702Z,998.85
2023-10-03T04:30:05.409Z,998.89
2023-10-03T04:31:06.322Z,998.89
2023-10-03T04:32:07.213Z,998.86
2023-10-03T04:33:08.212Z,998.85
2023-10-03T04:34:09.045Z,998.91
2023-10-03T04:35:09.942Z,998.95
2023-10-03T04:36:11.124Z,998.92
2023-10-03T04:37:11.621Z,998.92
2023-10-03T04:38:12.492Z,998.99
2023-10-03T04:39:13.416Z,998.98
2023-10-03T04:40:14.282Z,998.95
2023-10-03T04:41:15.148Z,998.94
2023-10-03T04:42:16.141Z,998.95
2023-10-03T04:43:16.517Z,998.91
2023-10-03T04:44:17.983Z,998.90
2023-10-03T04:45:18.123Z,998.97
2023-10-03T04:46:19.153Z,998.96
2023-10-03T04:47:19.553Z,998.96
2023-10-03T04:48:20.599Z,998.93
2023-10-03T04:49:21.008Z,998.92
2023-10-03T04:50:21.895Z,998.97
2023-10-03T04:51:22.765Z,998.97
2023-10-03T04:52:23.641Z,999.00
2023-10-03T04:53:24.614Z,998.99
2023-10-03T04:54:25.539Z,998.98
2023-10-03T04:55:26.395Z,998.97
2023-10-03T04:56:27.332Z,998.97
2023-10-03T04:57:28.191Z,999.00
2023-10-03T04:58:29.072Z,999.01
2023-10-03T04:59:30.012Z,999.00
2023-10-03T05:00:30.902Z,999.00
2023-10-03T05:01:31.844Z,999.00
2023-10-03T05:02:32.751Z,998.98
2023-10-03T05:03:33.880Z,998.93
2023-10-03T05:04:34.456Z,998.89
2023-10-03T05:05:35.301Z,998.90
2023-10-03T05:06:36.165Z,998.96
2023-10-03T05:07:37.053Z,998.95
2023-10-03T05:08:38.002Z,998.93
2023-10-03T05:09:38.856Z,998.92
2023-10-03T05:10:39.760Z,998.88
2023-10-03T05:11:40.708Z,998.86
2023-10-03T05:12:41.608Z,998.84
2023-10-03T05:13:42.464Z,998.89
2023-10-03T05:14:43.376Z,998.86
2023-10-03T05:15:44.284Z,998.86
2023-10-03T05:16:45.170Z,998.84
2023-10-03T05:17:46.264Z,998.88
2023-10-03T05:18:46.778Z,998.95
2023-10-03T05:19:47.200Z,998.99
2023-10-03T05:20:48.112Z,999.04
2023-10-03T05:21:48.977Z,998.98
2023-10-03T05:22:49.853Z,998.95
2023-10-03T05:23:50.777Z,998.97
2023-10-03T05:24:51.620Z,998.93
2023-10-03T05:25:52.505Z,998.92
2023-10-03T05:26:53.395Z,998.88
2023-10-03T05:27:54.301Z,998.90
2023-10-03T05:28:55.181Z,998.91
2023-10-03T05:29:56.102Z,998.90
2023-10-03T05:30:57.025Z,998.87
2023-10-03T05:31:57.912Z,998.89
2023-10-03T05:32:58.822Z,998.86
2023-10-03T05:33:59.689Z,998.86
2023-10-03T05:35:00.549Z,998.87
2023-10-03T05:36:01.522Z,998.90
2023-10-03T05:37:02.421Z,998.92
2023-10-03T05:38:03.292Z,998.93
2023-10-03T05:39:04.546Z,998.88
2023-10-03T05:40:05.038Z,998.85
2023-10-03T05:41:05.933Z,998.90
2023-10-03T05:42:06.888Z,998.85
2023-10-03T05:43:08.090Z,998.85
2023-10-03T05:44:08.153Z,998.86
2023-10-03T05:45:09.048Z,998.82
2023-10-03T05:46:09.911Z,998.82
2023-10-03T05:47:10.773Z,998.83
2023-10-03T05:48:11.762Z,998.88
2023-10-03T05:49:12.272Z,998.84
2023-10-03T05:50:13.237Z,998.88
2023-10-03T05:51:14.123Z,998.86
2023-10-03T05:52:15.021Z,998.91
2023-10-03T05:53:15.908Z,998.94
2023-10-03T05:54:16.785Z,998.97
2023-10-03T05:55:17.652Z,998.99
2023-10-03T05:56:18.551Z,998.95
2023-10-03T05:57:19.459Z,998.92
2023-10-03T05:58:20.349Z,998.90
2023-10-03T05:59:21.216Z,998.90
2023-10-03T06:00:22.090Z,998.93
2023-10-03T06:01:22.971Z,998.91
2023-10-03T06:02:23.995Z,998.95
2023-10-03T06:03:24.579Z,998.96
2023-10-03T06:04:25.228Z,998.99
2023-10-03T06:05:25.661Z,998.99
2023-10-03T06:06:26.512Z,999.01
2023-10-03T06:07:27.415Z,999.01
2023-10-03T06:08:28.380Z,998.97
2023-10-03T06:09:29.216Z,998.94
2023-10-03T06:10:30.084Z,998.94
2023-10-03T06:11:31.065Z,998.98
2023-10-03T06:12:31.514Z,999.03
2023-10-03T06:13:32.396Z,999.08
2023-10-03T06:14:33.291Z,999.12
2023-10-03T06:15:34.157Z,999.14
2023-10-03T06:16:35.020Z,999.12
2023-10-03T06:17:36.001Z,999.10
2023-10-03T06:18:36.579Z,999.15
2023-10-03T06:19:37.029Z,999.11
2023-10-03T06:20:37.993Z,999.14
2023-10-03T06:21:38.982Z,999.16
2023-10-03T06:22:39.399Z,999.16
2023-10-03T06:23:40.321Z,999.14
2023-10-03T06:24:41.209Z,999.14
2023-10-03T06:25:42.061Z,999.13
2023-10-03T06:26:44.088Z,999.13
2023-10-03T06:27:43.914Z,999.21
2023-10-03T06:28:44.740Z,999.36
2023-10-03T06:29:45.657Z,999.40
2023-10-03T06:30:46.579Z,999.38
2023-10-03T06:31:47.437Z,999.38
2023-10-03T06:32:48.405Z,999.44
2023-10-03T06:33:49.357Z,999.47
2023-10-03T06:34:50.260Z,999.50
2023-10-03T06:35:51.153Z,999.53
2023-10-03T06:36:52.014Z,999.49
2023-10-03T06:37:52.881Z,999.46
2023-10-03T06:38:53.832Z,999.43
2023-10-03T06:39:54.707Z,999.33
2023-10-03T06:40:55.570Z,999.29
2023-10-03T06:41:56.577Z,999.39
2023-10-03T06:42:57.441Z,999.25
2023-10-03T06:43:58.372Z,999.31
2023-10-03T06:44:59.333Z,999.31
2023-10-03T06:46:00.187Z,999.36
2023-10-03T06:47:01.117Z,999.46
2023-10-03T06:48:02.047Z,999.45
2023-10-03T06:49:02.798Z,999.46
2023-10-03T06:50:03.434Z,999.51
2023-10-03T06:51:04.414Z,999.51
2023-10-03T06:52:04.804Z,999.53
2023-10-03T06:53:05.745Z,999.57
2023-10-03T06:54:06.661Z,999.49
2023-10-03T06:55:07.541Z,999.55
2023-10-03T06:56:08.422Z,999.51
2023-10-03T06:57:09.401Z,999.56
2023-10-03T06:58:09.815Z,999.63
2023-10-03T06:59:10.719Z,999.67
2023-10-03T07:00:11.573Z,999.75
2023-10-03T07:01:12.512Z,999.77
2023-10-03T07:02:13.364Z,999.68
2023-10-03T07:03:14.453Z,999.62
2023-10-03T07:04:15.015Z,999.68
2023-10-03T07:05:15.524Z,999.62
2023-10-03T07:06:16.405Z,999.57
2023-10-03T07:07:17.242Z,999.56
2023-10-03T07:08:18.114Z,999.56
2023-10-03T07:09:19.083Z,999.59
2023-10-03T07:10:19.946Z,999.70
2023-10-03T07:11:20.829Z,999.78
2023-10-03T07:12:21.712Z,999.78
2023-10-03T07:13:25.356Z,999.77
2023-10-03T07:14:23.287Z,999.75
2023-10-03T07:15:24.254Z,999.78
2023-10-03T07:16:25.219Z,999.79
2023-10-03T07:17:26.247Z,999.83
2023-10-03T07:18:26.753Z,999.91
2023-10-03T07:19:27.179Z,999.87
2023-10-03T07:20:28.147Z,999.88
2023-10-03T07:21:29.073Z,999.86
2023-10-03T07:22:29.998Z,999.89
2023-10-03T07:23:30.883Z,999.79
2023-10-03T07:24:31.827Z,999.87
2023-10-03T07:25:32.691Z,999.83
2023-10-03T07:26:33.750Z,999.83
2023-10-03T07:27:34.124Z,999.82
2023-10-03T07:28:35.078Z,999.78
2023-10-03T07:29:36.130Z,999.80
2023-10-03T07:30:36.690Z,999.78
2023-10-03T07:31:37.140Z,999.83
2023-10-03T07:32:38.071Z,999.81
2023-10-03T07:33:39.186Z,999.83
2023-10-03T07:34:39.649Z,999.80
2023-10-03T07:35:40.629Z,999.84
2023-10-03T07:36:41.568Z,999.85
2023-10-03T07:37:42.412Z,999.92
2023-10-03T07:38:43.355Z,999.92
2023-10-03T07:39:44.291Z,999.91
2023-10-03T07:40:45.153Z,999.97
2023-10-03T07:41:46.041Z,999.99
2023-10-03T07:42:46.889Z,999.99
2023-10-03T07:43:47.761Z,1000.03
2023-10-03T07:44:48.731Z,1000.08
2023-10-03T07:45:49.204Z,1000.13
2023-10-03T07:46:50.176Z,1000.11
2023-10-03T07:47:50.677Z,1000.10
2023-10-03T07:48:51.187Z,1000.11
2023-10-03T07:49:51.629Z,1000.10
2023-10-03T07:50:52.589Z,1000.08
2023-10-03T07:51:53.462Z,1000.15
2023-10-03T07:52:55.188Z,1000.13
2023-10-03T07:53:55.122Z,1000.30
2023-10-03T07:54:56.099Z,1000.23
2023-10-03T07:55:56.982Z,1000.21
2023-10-03T07:56:57.896Z,1000.28
2023-10-03T07:57:59.868Z,1000.34
2023-10-03T07:58:59.250Z,1000.41
2023-10-03T08:00:00.328Z,1000.36
2023-10-03T08:01:00.840Z,1000.49
2023-10-03T08:02:02.362Z,1000.39
2023-10-03T08:03:02.724Z,1000.47
2023-10-03T08:04:03.247Z,1000.41
2023-10-03T08:05:03.823Z,1000.45
2023-10-03T08:06:04.325Z,1000.26
2023-10-03T08:07:04.798Z,1000.43
2023-10-03T08:08:05.814Z,1000.37
2023-10-03T08:09:06.986Z,1000.39
2023-10-03T08:10:07.514Z,1000.41
2023-10-03T08:11:08.430Z,1000.36
2023-10-03T08:12:09.340Z,1000.50
2023-10-03T08:13:10.266Z,1000.50
2023-10-03T08:14:11.173Z,1000.48
2023-10-03T08:15:12.069Z,1000.47
2023-10-03T08:16:12.956Z,1000.37
2023-10-03T08:17:13.823Z,1000.51
2023-10-03T08:18:14.791Z,1000.51
2023-10-03T08:19:15.665Z,1000.53
2023-10-03T08:20:16.584Z,1000.54
2023-10-03T08:21:17.699Z,1000.51
2023-10-03T08:22:18.084Z,1000.53
2023-10-03T08:23:19.050Z,1000.56
2023-10-03T08:24:19.948Z,1000.60
2023-10-03T08:25:20.793Z,1000.56
2023-10-03T08:26:21.659Z,1000.51
2023-10-03T08:27:22.527Z,1000.53
2023-10-03T08:28:23.427Z,1000.55
2023-10-03T08:29:24.622Z,1000.52
2023-10-03T08:30:25.278Z,1000.48
2023-10-03T08:31:25.731Z,1000.49
2023-10-03T08:32:26.740Z,1000.58
2023-10-03T08:33:27.736Z,1000.57
2023-10-03T08:34:28.238Z,1000.52
2023-10-03T08:35:29.188Z,1000.53
2023-10-03T08:36:30.158Z,1000.50
2023-10-03T08:37:31.043Z,1000.48
2023-10-03T08:38:31.971Z,1000.47
2023-10-03T08:39:32.911Z,1000.47
2023-10-03T08:40:33.809Z,1000.39
2023-10-03T08:41:34.722Z,1000.43
2023-10-03T08:42:36.134Z,1000.51
2023-10-03T08:43:36.230Z,1000.58
2023-10-03T08:44:37.132Z,1000.61
2023-10-03T08:45:38.056Z,1000.62
2023-10-03T08:46:39.117Z,1000.60
2023-10-03T08:47:39.735Z,1000.64
2023-10-03T08:49:40.945Z,1000.74
2023-10-03T08:50:41.888Z,1000.70
2023-10-03T08:51:42.749Z,1000.78
2023-10-03T08:52:43.648Z,1000.74
2023-10-03T08:53:44.620Z,1000.73
2023-10-03T08:54:45.456Z,1000.78
2023-10-03T08:55:46.482Z,1000.79
2023-10-03T08:56:46.939Z,1000.76
2023-10-03T08:57:47.872Z,1000.75
2023-10-03T08:58:48.753Z,1000.79
2023-10-03T08:59:49.683Z,1000.74
2023-10-03T09:00:50.537Z,1000.78
2023-10-03T09:01:51.449Z,1000.75
2023-10-03T09:02:54.432Z,1000.84
2023-10-03T09:03:53.443Z,1000.86
2023-10-03T09:04:53.984Z,1000.91
2023-10-03T09:05:54.888Z,1000.98
2023-10-03T09:06:55.754Z,1000.92
2023-10-03T09:07:56.649Z,1000.89
2023-10-03T09:08:57.571Z,1000.88
2023-10-03T09:09:58.482Z,1001.00
2023-10-03T09:10:59.346Z,1000.98
2023-10-03T09:12:00.265Z,1000.99
2023-10-03T09:13:01.143Z,1001.07
2023-10-03T09:14:02.049Z,1001.08
2023-10-03T09:15:02.997Z,1001.11
2023-10-03T09:16:03.947Z,1001.22
2023-10-03T09:17:04.802Z,1001.16
2023-10-03T09:18:05.732Z,1001.18
2023-10-03T09:19:06.175Z,1001.17
2023-10-03T09:20:07.043Z,1001.16
2023-10-03T09:21:07.999Z,1001.12
2023-10-03T09:22:08.882Z,1001.07
2023-10-03T09:23:10.978Z,1001.14
2023-10-03T09:24:10.856Z,1001.14
2023-10-03T09:25:11.059Z,1001.20
2023-10-03T09:26:11.944Z,1001.22
2023-10-03T09:27:12.964Z,1001.24
2023-10-03T09:28:13.348Z,1001.23
2023-10-03T09:29:14.289Z,1001.24
2023-10-03T09:30:15.190Z,1001.28
2023-10-03T09:31:16.301Z,1001.18
2023-10-03T09:32:16.832Z,1001.25
2023-10-03T09:33:17.844Z,1001.29
2023-10-03T09:34:18.998Z,1001.30
2023-10-03T09:35:19.641Z,1001.36
2023-10-03T09:36:20.018Z,1001.32
2023-10-03T09:37:20.905Z,1001.29
2023-10-03T09:38:21.847Z,1001.24
2023-10-03T09:39:22.805Z,1001.22
2023-10-03T09:40:23.649Z,1001.32
2023-10-03T09:41:24.520Z,1001.32
2023-10-03T09:42:25.674Z,1001.21
2023-10-03T09:43:26.109Z,1001.15
2023-10-03T09:44:26.961Z,1001.00
2023-10-03T09:45:27.919Z,1001.12
2023-10-03T09:46:28.807Z,1001.17
2023-10-03T09:47:29.812Z,1001.24
2023-10-03T09:48:30.256Z,1001.21
2023-10-03T09:49:30.956Z,1001.17
2023-10-03T09:50:31.536Z,1001.30
2023-10-03T09:51:32.128Z,1001.31
2023-10-03T09:52:33.067Z,1001.33
2023-10-03T09:53:34.030Z,1001.32
2023-10-03T09:54:34.937Z,1001.31
2023-10-03T09:55:35.853Z,1001.35
2023-10-03T09:56:36.750Z,1001.34
2023-10-03T09:57:37.582Z,1001.38
2023-10-03T09:58:38.603Z,1001.25
2023-10-03T09:59:39.474Z,1001.31
2023-10-03T10:00:41.189Z,1001.34
2023-10-03T10:01:41.129Z,1001.28
2023-10-03T10:02:42.129Z,1001.24
2023-10-03T10:03:42.833Z,1001.30
2023-10-03T10:04:43.390Z,1001.25
2023-10-03T10:05:44.297Z,1001.23
2023-10-03T10:06:45.164Z,1001.24
2023-10-03T10:07:46.157Z,1001.25
2023-10-03T10:08:47.132Z,1001.33
2023-10-03T10:09:47.506Z,1001.35
2023-10-03T10:10:48.396Z,1001.36
2023-10-03T10:11:49.436Z,1001.32
2023-10-03T10:12:49.853Z,1001.30
2023-10-03T10:13:50.752Z,1001.33
2023-10-03T10:14:51.686Z,1001.30
2023-10-03T10:15:52.619Z,1001.34
2023-10-03T10:16:53.467Z,1001.42
2023-10-03T10:17:54.384Z,1001.43
2023-10-03T10:18:57.292Z,1001.51
2023-10-03T10:19:56.032Z,1001.59
2023-10-03T10:20:56.968Z,1001.58
2023-10-03T10:21:57.883Z,1001.61
2023-10-03T10:22:58.776Z,1001.66
2023-10-03T10:23:59.695Z,1001.68
2023-10-03T10:25:00.582Z,1001.60
2023-10-03T10:26:01.464Z,1001.62
2023-10-03T10:27:02.340Z,1001.67
2023-10-03T10:28:03.355Z,1001.72
2023-10-03T10:29:03.922Z,1001.70
2023-10-03T10:30:04.454Z,1001.67
2023-10-03T10:31:05.417Z,1001.59
2023-10-03T10:32:06.319Z,1001.63
2023-10-03T10:33:07.273Z,1001.59
2023-10-03T10:34:08.183Z,1001.68
2023-10-03T10:35:09.054Z,1001.77
2023-10-03T10:36:09.962Z,1001.88
2023-10-03T10:37:11.466Z,1001.80
2023-10-03T10:38:11.716Z,1001.82
2023-10-03T10:39:12.730Z,1001.86
2023-10-03T10:40:14.134Z,1001.99
2023-10-03T10:41:14.084Z,1001.94
2023-10-03T10:42:14.960Z,1001.91
2023-10-03T10:43:15.856Z,1001.93
2023-10-03T10:44:16.925Z,1001.91
2023-10-03T10:45:17.304Z,1001.88
2023-10-03T10:46:18.327Z,1001.96
2023-10-03T10:47:18.762Z,1002.02
2023-10-03T10:48:19.755Z,1001.95
2023-10-03T10:49:20.400Z,1001.98
2023-10-03T10:50:22.487Z,1001.92
2023-10-03T10:51:22.271Z,1001.80
2023-10-03T10:52:23.162Z,1001.82
2023-10-03T10:53:24.129Z,1001.76
2023-10-03T10:54:25.001Z,1001.75
2023-10-03T10:55:25.850Z,1001.82
2023-10-03T10:56:26.711Z,1001.77
2023-10-03T10:57:27.674Z,1001.86
2023-10-03T10:58:28.549Z,1001.73
2023-10-03T10:59:29.452Z,1001.71
2023-10-03T11:00:30.396Z,1001.71
2023-10-03T11:01:31.245Z,1001.65
2023-10-03T11:02:32.283Z,1001.64
2023-10-03T11:03:33.076Z,1001.64
2023-10-03T11:04:33.550Z,1001.63
2023-10-03T11:05:34.465Z,1001.67
2023-10-03T11:06:35.366Z,1001.74
2023-10-03T11:07:36.341Z,1001.76
2023-10-03T11:08:37.318Z,1001.71
2023-10-03T11:09:37.682Z,1001.72
2023-10-03T11:10:38.608Z,1001.82
2023-10-03T11:11:39.698Z,1001.75
2023-10-03T11:12:40.142Z,1001.84
2023-10-03T11:13:41.036Z,1001.93
2023-10-03T11:14:41.913Z,1001.96
2023-10-03T11:15:42.892Z,1002.04
2023-10-03T11:16:43.731Z,1002.07
2023-10-03T11:17:44.649Z,1002.09
2023-10-03T11:18:45.655Z,1002.06
2023-10-03T11:19:46.091Z,1002.05
2023-10-03T11:20:46.936Z,1002.07
2023-10-03T11:21:47.475Z,1002.19
2023-10-03T11:22:48.332Z,1002.30
2023-10-03T11:23:49.263Z,1002.40
2023-10-03T11:24:50.174Z,1002.51
2023-10-03T11:25:51.046Z,1002.53
2023-10-03T11:26:51.987Z,1002.54
2023-10-03T11:27:52.410Z,1002.58
2023-10-03T11:28:53.465Z,1002.55
2023-10-03T11:29:53.926Z,1002.54
2023-10-03T11:30:54.794Z,1002.57
2023-10-03T11:31:55.714Z,1002.60
2023-10-03T11:32:56.618Z,1002.64
2023-10-03T11:33:57.544Z,1002.63
2023-10-03T11:34:58.436Z,1002.63
2023-10-03T11:35:59.283Z,1002.65
2023-10-03T11:37:00.142Z,1002.62
2023-10-03T11:38:01.019Z,1002.75
2023-10-03T11:39:02.243Z,1002.74
2023-10-03T11:40:02.812Z,1002.77
2023-10-03T11:41:03.658Z,1002.79
2023-10-03T11:42:04.573Z,1002.81
2023-10-03T11:43:05.444Z,1002.81
2023-10-03T11:44:06.348Z,1002.80
2023-10-03T11:45:07.324Z,1002.73
2023-10-03T11:46:08.222Z,1002.72
2023-10-03T11:47:09.096Z,1002.67
2023-10-03T11:48:10.137Z,1002.65
2023-10-03T11:49:10.539Z,1002.70
2023-10-03T11:50:11.434Z,1002.66
2023-10-03T11:51:12.607Z,1002.71
2023-10-03T11:52:13.108Z,1002.71
2023-10-03T11:53:13.996Z,1002.65
2023-10-03T11:54:14.941Z,1002.68
2023-10-03T11:55:15.840Z,1002.66
2023-10-03T11:56:16.713Z,1002.71
2023-10-03T11:57:17.688Z,1002.76
2023-10-03T11:58:18.565Z,1002.76
2023-10-03T11:59:19.466Z,1002.79
2023-10-03T12:00:20.377Z,1002.80
2023-10-03T12:01:21.266Z,1002.79
2023-10-03T12:02:22.150Z,1002.75
2023-10-03T12:03:23.186Z,1002.82
2023-10-03T12:04:23.647Z,1002.82
2023-10-03T12:05:24.587Z,1002.86
2023-10-03T12:06:25.544Z,1002.82
2023-10-03T12:07:26.378Z,1002.76
2023-10-03T12:08:27.349Z,1002.75
2023-10-03T12:09:28.208Z,1002.79
2023-10-03T12:10:29.068Z,1002.83
2023-10-03T12:11:29.983Z,1002.86
2023-10-03T12:12:30.840Z,1002.84
2023-10-03T12:13:31.702Z,1002.85
2023-10-03T12:14:32.584Z,1002.91
2023-10-03T12:15:33.462Z,1002.95
2023-10-03T12:16:34.417Z,1002.95
2023-10-03T12:17:35.402Z,1002.91
2023-10-03T12:18:36.342Z,1002.85
2023-10-03T12:19:37.232Z,1002.83
2023-10-03T12:20:39.296Z,1002.81
2023-10-03T12:21:38.601Z,1002.79
2023-10-03T12:22:39.472Z,1002.74
2023-10-03T12:23:40.529Z,1002.75
2023-10-03T12:24:41.159Z,1002.79
2023-10-03T12:25:42.016Z,1002.89